Dobbins Air Reserve Base Airport Marietta US
ICAO: KMGE
IATA: MGE
Category: Large
Scheduled Services: No

Elevation: 1068 ft
TransAlt. 18000 ft.

Airport Communications:
ATLANTA APP/DEP:121
ATIS:26.95
GND:125.3
NAVY OPS:34.02
ARNG OPS:47
PMSV METRO:27.475
94AW COMD POST:37.952
PTD:139.3
TWR:120.75

KMGE Zoom In..

Runways:

(A) RW 11 length 10002 ft width 300 ft
ILS 109.70 / hdg 109

(B) RW 29 length 10002 ft width 300 ft
ILS 111.35 / hdg 289

Location; KMGE
Day. 21 / Time. 19.56 Zulu
* Altimeter: 30.11
* Temperature: 27° c. 80.6°f.
* Wind from: 100° Speed 04 kn.
Dewpoint: 18° c.
Visibility: 10 Statute Miles.
Clouds: Broken 4000 ft.
Clouds: Broken 12000 ft.
Clouds: Broken 25000 ft.

KMGE 211956Z 10004KT 10SM BKN040 BKN120 BKN250 27/18 A3011 RMK AO2A SLP189 T02660176 $


Wind From 100°
Speed 04 kn.

 
 
jpsmedia.com for Web Design SOUNDCLOUD worldairports.se 2018   terms of use